Time;durP1;ratioP1;P1;durP2;ratioP2;P2;SDS_P1;SDS_P2;PMS_P1;PMS_P2;Temp;Humidity;BMP_temperature;BMP_pressure;BME280_temperature;BME280_humidity;BME280_pressure;Samples;Min_cycle;Max_cycle;Signal;HPM_P1;HPM_P2
2022/12/02 00:02:28;;;;;;;33.30;19.85;;;;;;;3.43;86.95;101248.14;2684394;87;21017;-89
2022/12/02 00:06:31;;;;;;;31.75;21.12;;;;;;;3.38;87.33;101256.19;2684708;87;21584;-89
2022/12/02 00:10:33;;;;;;;34.35;22.67;;;;;;;3.41;87.29;101252.12;2664278;87;21021;-89
2022/12/02 00:14:34;;;;;;;31.52;21.45;;;;;;;3.44;88.33;101245.91;2724087;85;21041;-90
2022/12/02 00:18:35;;;;;;;29.35;18.52;;;;;;;3.42;87.69;101243.32;2723518;85;21418;-89
2022/12/02 00:22:37;;;;;;;33.05;23.02;;;;;;;3.39;87.66;101238.65;2723633;85;21504;-89
2022/12/02 00:26:38;;;;;;;34.23;21.90;;;;;;;3.28;87.48;101239.04;2723610;85;21041;-89
2022/12/02 00:30:39;;;;;;;32.70;21.62;;;;;;;3.21;87.49;101237.08;2725043;85;21698;-89
2022/12/02 00:34:41;;;;;;;32.78;20.32;;;;;;;3.18;87.88;101234.56;2724095;85;21132;-89
2022/12/02 00:38:42;;;;;;;30.88;20.60;;;;;;;3.10;87.86;101239.22;2696132;85;21646;-89
2022/12/02 00:42:43;;;;;;;35.65;22.50;;;;;;;3.09;88.48;101237.06;2736367;85;21088;-89
2022/12/02 00:46:44;;;;;;;34.88;20.95;;;;;;;3.02;87.80;101243.43;2728862;85;21121;-89
2022/12/02 00:50:45;;;;;;;32.63;21.75;;;;;;;2.96;88.08;101240.58;2733570;85;21081;-89
2022/12/02 00:54:46;;;;;;;29.30;21.00;;;;;;;2.92;87.94;101241.58;2725521;86;21067;-89
2022/12/02 00:58:47;;;;;;;34.03;21.35;;;;;;;2.91;87.44;101243.80;2735376;85;21055;-89
2022/12/02 01:02:48;;;;;;;38.75;23.92;;;;;;;2.89;88.49;101244.31;2693082;87;21053;-89
2022/12/02 01:06:49;;;;;;;44.50;29.00;;;;;;;2.94;89.31;101242.38;2682861;87;21673;-89
2022/12/02 01:10:50;;;;;;;38.10;25.12;;;;;;;2.93;89.35;101251.65;2683344;88;21005;-89
2022/12/02 01:14:51;;;;;;;34.35;22.55;;;;;;;2.89;89.69;101243.00;2683250;87;21133;-89
2022/12/02 01:18:52;;;;;;;38.63;24.70;;;;;;;2.89;89.99;101240.37;2682345;88;21048;-89
2022/12/02 01:22:54;;;;;;;36.63;24.82;;;;;;;2.80;89.60;101242.02;2683870;87;21085;-89
2022/12/02 01:26:55;;;;;;;36.33;26.25;;;;;;;2.78;90.42;101235.95;2682861;87;21124;-89
2022/12/02 01:30:56;;;;;;;30.10;20.37;;;;;;;2.78;89.96;101232.86;2682304;87;21521;-90
2022/12/02 01:34:57;;;;;;;38.80;25.45;;;;;;;2.72;89.88;101226.51;2705432;85;21635;-89
2022/12/02 01:38:58;;;;;;;49.67;27.45;;;;;;;2.80;89.78;101226.25;2730067;86;21036;-89
2022/12/02 01:43:00;;;;;;;40.52;26.40;;;;;;;2.75;89.58;101224.21;2691415;85;21035;-89
2022/12/02 01:47:01;;;;;;;29.02;20.62;;;;;;;2.77;89.38;101228.98;2725851;85;21642;-89
2022/12/02 01:51:04;;;;;;;42.62;22.90;;;;;;;2.78;89.52;101230.70;2723695;84;21016;-89
2022/12/02 01:55:10;;;;;;;36.55;23.15;;;;;;;2.80;88.89;101236.29;2735106;85;21058;-89
2022/12/02 01:59:14;;;;;;;39.38;21.55;;;;;;;2.80;88.75;101234.13;2690805;85;21110;-89
2022/12/02 02:03:15;;;;;;;34.65;22.52;;;;;;;2.80;88.90;101223.63;2726607;85;21078;-89
2022/12/02 02:07:16;;;;;;;30.35;22.02;;;;;;;2.80;88.93;101212.64;2726100;85;21866;-89
2022/12/02 02:11:18;;;;;;;34.58;21.80;;;;;;;2.85;89.79;101205.48;2725765;85;21080;-89
2022/12/02 02:15:21;;;;;;;37.00;23.67;;;;;;;2.86;88.96;101207.63;2724811;85;21079;-89
2022/12/02 02:19:22;;;;;;;32.40;24.27;;;;;;;2.83;88.85;101216.94;2724783;85;21071;-89
2022/12/02 02:23:25;;;;;;;31.12;19.98;;;;;;;2.79;88.49;101219.28;2734530;85;21101;-89
2022/12/02 02:27:26;;;;;;;28.80;18.10;;;;;;;2.79;88.63;101220.59;2729143;85;21039;-90
2022/12/02 02:31:28;;;;;;;30.08;22.45;;;;;;;2.73;87.66;101224.28;2724781;85;21063;-89
2022/12/02 02:35:29;;;;;;;27.07;19.02;;;;;;;2.68;87.85;101213.92;2719539;85;21095;-89
2022/12/02 02:39:31;;;;;;;29.87;19.20;;;;;;;2.68;87.26;101211.77;2700825;86;21637;-89
2022/12/02 02:43:35;;;;;;;28.85;20.92;;;;;;;2.61;87.37;101204.98;2701115;86;21559;-89
2022/12/02 02:47:37;;;;;;;40.70;22.55;;;;;;;2.61;87.82;101208.92;2701067;86;21047;-89
2022/12/02 02:51:38;;;;;;;29.98;21.25;;;;;;;2.61;88.96;101209.80;2700786;86;21059;-89
2022/12/02 02:55:41;;;;;;;35.85;23.10;;;;;;;2.58;89.50;101212.53;2700939;86;21012;-89
2022/12/02 02:59:43;;;;;;;36.38;24.75;;;;;;;2.68;89.48;101215.23;2700063;86;21071;-89
2022/12/02 03:03:49;;;;;;;31.55;21.42;;;;;;;2.74;89.79;101215.48;2675352;86;21067;-89
2022/12/02 03:07:51;;;;;;;29.15;20.30;;;;;;;2.82;89.30;101212.13;2701914;86;21618;-89
2022/12/02 03:11:54;;;;;;;27.80;21.68;;;;;;;2.83;88.67;101213.00;2713340;86;21032;-89
2022/12/02 03:15:55;;;;;;;35.38;22.05;;;;;;;2.85;89.35;101212.48;2688894;86;21154;-90
2022/12/02 03:19:57;;;;;;;36.90;21.97;;;;;;;2.85;89.36;101204.61;2702844;86;21052;-90
2022/12/02 03:24:02;;;;;;;41.28;24.47;;;;;;;2.83;89.06;101197.23;2702260;86;21544;-89
2022/12/02 03:28:04;;;;;;;40.52;23.47;;;;;;;2.76;89.15;101191.33;2704555;86;21098;-89
2022/12/02 03:32:06;;;;;;;37.17;20.08;;;;;;;2.71;89.14;101194.10;2701893;86;21059;-89
2022/12/02 03:36:09;;;;;;;35.13;21.65;;;;;;;2.62;89.13;101174.73;2703297;86;21052;-89
2022/12/02 03:40:11;;;;;;;24.85;17.48;;;;;;;2.55;89.64;101178.02;2706243;86;21051;-89
2022/12/02 03:44:14;;;;;;;25.68;17.55;;;;;;;2.50;89.75;101186.95;2698836;86;21036;-89
2022/12/02 03:48:20;;;;;;;28.42;18.85;;;;;;;2.44;90.38;101184.08;2710176;87;21103;-89
2022/12/02 03:52:19;;;;;;;27.60;18.98;;;;;;;2.39;88.90;101179.00;2722047;85;21576;-89
2022/12/02 03:56:20;;;;;;;24.12;18.20;;;;;;;2.42;88.82;101176.70;2721536;86;21555;-89
2022/12/02 04:00:22;;;;;;;24.50;17.25;;;;;;;2.41;90.29;101176.30;2735561;85;21079;-88
2022/12/02 04:04:23;;;;;;;26.17;18.20;;;;;;;2.46;89.72;101178.34;2723422;85;21040;-89
2022/12/02 04:08:24;;;;;;;24.30;16.52;;;;;;;2.47;89.81;101172.63;2707353;86;21040;-90
2022/12/02 04:12:25;;;;;;;25.27;17.15;;;;;;;2.41;89.95;101164.05;2710290;86;21071;-89
2022/12/02 04:16:26;;;;;;;32.45;17.80;;;;;;;2.42;90.14;101170.14;2705872;87;21653;-89
2022/12/02 04:20:27;;;;;;;33.92;21.62;;;;;;;2.41;90.12;101167.98;2707220;87;21110;-89
2022/12/02 04:24:28;;;;;;;23.77;17.77;;;;;;;2.45;90.20;101167.88;2708733;86;21028;-88
2022/12/02 04:28:29;;;;;;;27.80;18.65;;;;;;;2.47;90.82;101164.30;2771142;85;21004;-88
2022/12/02 04:32:30;;;;;;;30.52;16.70;;;;;;;2.46;91.12;101165.66;2728650;86;21049;-88
2022/12/02 04:36:31;;;;;;;31.65;16.73;;;;;;;2.49;91.37;101161.61;2740946;86;21088;-89
2022/12/02 04:40:32;;;;;;;27.55;18.82;;;;;;;2.55;90.55;101158.76;2694016;85;21033;-88
2022/12/02 04:44:33;;;;;;;20.05;14.63;;;;;;;2.54;90.49;101164.92;2721177;85;21009;-88
2022/12/02 04:48:34;;;;;;;24.47;16.40;;;;;;;2.54;90.74;101155.30;2744165;85;21095;-89
2022/12/02 04:52:35;;;;;;;24.80;17.20;;;;;;;2.46;90.96;101152.52;2758151;85;21578;-89
2022/12/02 04:56:37;;;;;;;22.82;15.00;;;;;;;2.47;91.34;101158.17;2679697;86;21592;-89
2022/12/02 05:00:38;;;;;;;24.87;17.15;;;;;;;2.42;91.13;101157.88;2709328;86;21567;-90
2022/12/02 05:04:39;;;;;;;28.17;18.62;;;;;;;2.38;90.21;101169.41;2738997;84;21052;-88
2022/12/02 05:08:40;;;;;;;28.50;19.50;;;;;;;2.36;90.19;101169.05;2712026;86;21064;-87
2022/12/02 05:12:41;;;;;;;30.10;14.98;;;;;;;2.25;90.07;101167.62;2705985;87;21143;-88
2022/12/02 05:16:42;;;;;;;29.48;18.60;;;;;;;2.28;90.71;101164.91;2706432;87;21066;-88
2022/12/02 05:20:44;;;;;;;29.27;18.32;;;;;;;2.21;90.88;101158.13;2720814;86;21012;-87
2022/12/02 05:24:47;;;;;;;32.10;19.57;;;;;;;2.18;91.58;101165.27;2674607;88;21091;-88
2022/12/02 05:28:48;;;;;;;25.02;18.10;;;;;;;2.23;91.69;101165.97;2644272;87;21377;-88
2022/12/02 05:32:49;;;;;;;34.65;18.85;;;;;;;2.23;90.65;101158.94;2723830;85;21091;-92
2022/12/02 05:36:50;;;;;;;32.13;21.77;;;;;;;2.30;91.47;101167.47;2717842;86;21055;-89
2022/12/02 05:40:57;;;;;;;30.52;18.60;;;;;;;2.30;91.36;101165.31;2710630;85;21076;-89
2022/12/02 05:45:00;;;;;;;31.30;21.85;;;;;;;2.24;90.61;101174.25;2720627;85;21080;-88
2022/12/02 05:49:06;;;;;;;34.83;20.62;;;;;;;2.26;90.95;101173.73;2703279;86;21067;-88
2022/12/02 05:53:23;;;;;;;31.45;20.57;;;;;;;2.31;91.72;101171.81;2698588;86;21075;-89
2022/12/02 05:57:29;;;;;;;34.73;21.70;;;;;;;2.22;90.42;101169.51;2706737;86;21619;-89
2022/12/02 06:01:37;;;;;;;32.95;20.48;;;;;;;2.22;91.32;101176.07;2707916;86;21079;-88
2022/12/02 06:05:42;;;;;;;25.48;18.48;;;;;;;2.21;91.51;101178.30;2705086;86;20989;-89
2022/12/02 06:09:43;;;;;;;27.15;17.48;;;;;;;2.17;91.17;101174.05;2734226;85;21032;-89
2022/12/02 06:13:44;;;;;;;33.05;20.27;;;;;;;2.18;91.45;101182.34;2711807;86;21076;-88
2022/12/02 06:17:45;;;;;;;25.37;18.55;;;;;;;2.10;91.54;101182.11;2708414;87;21096;-89
2022/12/02 06:21:47;;;;;;;34.48;20.15;;;;;;;2.05;91.83;101181.84;2704328;86;21123;-89
2022/12/02 06:25:51;;;;;;;25.27;16.77;;;;;;;2.04;92.77;101186.25;2707960;86;21055;-89
2022/12/02 06:29:57;;;;;;;28.92;18.25;;;;;;;2.06;92.73;101190.13;2702374;87;21016;-89
2022/12/02 06:34:03;;;;;;;26.33;15.98;;;;;;;2.13;92.86;101195.59;2709497;85;21087;-89
2022/12/02 06:38:08;;;;;;;;;;;;;;;2.11;92.05;101191.70;2717150;87;21063;-90
2022/12/02 06:42:29;;;;;;;27.22;17.23;;;;;;;2.08;92.01;101195.73;2712821;86;20515;-90
2022/12/02 06:46:33;;;;;;;28.42;18.20;;;;;;;1.98;91.88;101205.66;2752792;85;21079;-90
2022/12/02 06:50:39;;;;;;;25.52;16.52;;;;;;;2.07;92.39;101199.74;2726778;85;21024;-90
2022/12/02 06:54:42;;;;;;;26.50;15.70;;;;;;;2.04;92.00;101202.00;2717056;86;21051;-90
2022/12/02 06:58:52;;;;;;;28.40;17.02;;;;;;;2.02;91.62;101203.81;2737402;85;21091;-90
2022/12/02 07:02:53;;;;;;;26.93;16.60;;;;;;;2.01;91.91;101209.97;2751146;85;21634;-90
2022/12/02 07:07:01;;;;;;;30.77;20.32;;;;;;;2.04;91.26;101209.87;2738815;84;21590;-87
2022/12/02 07:11:03;;;;;;;32.33;20.62;;;;;;;2.13;91.25;101205.63;2719320;85;21189;-88
2022/12/02 07:15:32;;;;;;;34.40;19.67;;;;;;;2.12;91.68;101198.66;2727000;85;21150;-88
2022/12/02 07:19:40;;;;;;;33.10;19.20;;;;;;;2.11;90.79;101203.98;2658953;88;21135;-87
2022/12/02 07:23:41;;;;;;;36.73;22.48;;;;;;;2.13;91.57;101204.31;2720446;86;21036;-89
2022/12/02 07:27:48;;;;;;;30.55;20.45;;;;;;;2.19;91.81;101208.52;2688543;86;21099;-88
2022/12/02 07:31:50;;;;;;;35.63;21.17;;;;;;;2.19;91.31;101208.52;2730892;85;21488;-88
2022/12/02 07:35:51;;;;;;;30.97;19.05;;;;;;;2.18;90.77;101209.90;2769520;85;21646;-88
2022/12/02 07:39:52;;;;;;;30.77;20.40;;;;;;;2.15;91.08;101205.59;2664112;87;21077;-88
2022/12/02 07:43:53;;;;;;;25.60;17.52;;;;;;;2.14;90.82;101209.13;2664562;86;21033;-88
2022/12/02 07:47:54;;;;;;;33.15;18.55;;;;;;;2.09;90.59;101213.20;2692921;86;21060;-88
2022/12/02 07:51:56;;;;;;;29.98;18.35;;;;;;;2.12;91.32;101213.57;2686697;85;21048;-88
2022/12/02 07:55:57;;;;;;;37.85;18.57;;;;;;;2.07;90.62;101204.99;2682249;87;21593;-88
2022/12/02 07:59:58;;;;;;;22.15;15.58;;;;;;;1.99;91.22;101201.30;2668468;88;21448;-88
2022/12/02 08:03:59;;;;;;;25.17;15.63;;;;;;;2.04;91.60;101203.31;2679804;88;21671;-88
2022/12/02 08:08:00;;;;;;;32.63;18.87;;;;;;;2.03;91.22;101194.16;2680729;88;21004;-88
2022/12/02 08:12:01;;;;;;;24.80;16.60;;;;;;;1.99;91.28;101192.11;2681478;88;21745;-88
2022/12/02 08:16:03;;;;;;;33.78;17.10;;;;;;;2.02;91.35;101195.94;2684475;88;21682;-87
2022/12/02 08:20:08;;;;;;;26.30;17.57;;;;;;;2.01;90.73;101198.16;2682305;88;21036;-88
2022/12/02 08:24:09;;;;;;;32.73;18.40;;;;;;;2.04;91.27;101188.88;2682486;87;21595;-88
2022/12/02 08:28:10;;;;;;;32.50;18.92;;;;;;;2.00;90.83;101195.14;2684128;87;21064;-88
2022/12/02 08:32:11;;;;;;;27.55;17.92;;;;;;;1.96;91.31;101196.11;2685553;85;21595;-88
2022/12/02 08:36:14;;;;;;;27.25;16.20;;;;;;;1.95;90.49;101197.02;2723771;85;21017;-88
2022/12/02 08:40:15;;;;;;;34.33;20.48;;;;;;;2.07;91.33;101201.89;2669227;87;21013;-88
2022/12/02 08:44:16;;;;;;;30.35;20.10;;;;;;;2.10;91.52;101192.61;2682354;87;21020;-88
2022/12/02 08:48:17;;;;;;;40.17;24.13;;;;;;;2.16;90.86;101199.87;2668699;87;21060;-88
2022/12/02 08:52:18;;;;;;;32.65;19.75;;;;;;;2.13;91.01;101197.75;2683650;87;21044;-88
2022/12/02 08:56:20;;;;;;;37.25;20.95;;;;;;;2.14;90.64;101202.09;2682431;87;21041;-88
2022/12/02 09:00:22;;;;;;;34.33;21.37;;;;;;;2.20;90.99;101210.70;2690331;86;21568;-88
2022/12/02 09:04:23;;;;;;;32.60;22.02;;;;;;;2.20;90.42;101208.08;2668755;87;21520;-88
2022/12/02 09:08:24;;;;;;;32.88;21.50;;;;;;;2.19;89.46;101210.30;2682352;87;21080;-88
2022/12/02 09:12:26;;;;;;;33.20;19.85;;;;;;;2.18;88.71;101209.90;2682851;87;21036;-88
2022/12/02 09:16:28;;;;;;;37.75;21.57;;;;;;;2.15;88.49;101216.09;2717963;84;21659;-88
2022/12/02 09:20:29;;;;;;;34.38;23.95;;;;;;;2.05;88.96;101214.21;2689714;86;21072;-88
2022/12/02 09:24:32;;;;;;;40.17;22.67;;;;;;;2.10;89.37;101208.83;2692475;86;20978;-88
2022/12/02 09:28:33;;;;;;;32.55;20.90;;;;;;;2.08;89.56;101203.61;2695012;86;21874;-87
2022/12/02 09:32:34;;;;;;;31.62;20.72;;;;;;;2.08;89.42;101207.55;2683991;86;21203;-87
2022/12/02 09:36:35;;;;;;;28.25;19.50;;;;;;;2.10;89.78;101203.11;2684063;87;21107;-87
2022/12/02 09:40:37;;;;;;;30.45;20.23;;;;;;;2.13;89.50;101204.78;2690150;87;21080;-87
2022/12/02 09:44:39;;;;;;;32.95;22.62;;;;;;;2.12;88.99;101208.32;2684324;87;21088;-87
2022/12/02 09:48:40;;;;;;;34.95;20.37;;;;;;;2.17;89.44;101205.56;2689563;87;21028;-87
2022/12/02 09:52:43;;;;;;;36.13;20.30;;;;;;;2.23;90.06;101206.66;2690163;87;21047;-87
2022/12/02 09:56:44;;;;;;;34.78;21.45;;;;;;;2.22;89.51;101204.95;2622752;88;21087;-87
2022/12/02 10:00:45;;;;;;;35.78;20.43;;;;;;;2.23;89.55;101198.31;2669379;87;21100;-87
2022/12/02 10:04:46;;;;;;;34.25;20.32;;;;;;;2.24;89.35;101193.47;2694812;88;21032;-86
2022/12/02 10:08:48;;;;;;;29.72;17.48;;;;;;;2.26;90.38;101196.06;2685195;88;21660;-87
2022/12/02 10:12:49;;;;;;;34.08;20.52;;;;;;;2.26;89.11;101184.24;2690088;86;21047;-86
2022/12/02 10:16:53;;;;;;;34.05;24.70;;;;;;;2.26;88.65;101181.62;2651240;88;21682;-87
2022/12/02 10:20:54;;;;;;;33.92;20.12;;;;;;;2.29;89.41;101182.83;2662324;88;21105;-87
2022/12/02 10:24:55;;;;;;;41.10;22.48;;;;;;;2.30;88.33;101188.48;2674770;88;21016;-87
2022/12/02 10:29:07;;;;;;;35.75;19.37;;;;;;;2.37;89.37;101176.01;2672777;87;21619;-86
2022/12/02 10:33:11;;;;;;;32.28;20.60;;;;;;;2.33;88.75;101179.19;2687858;87;21193;-87
2022/12/02 10:37:23;;;;;;;33.65;20.70;;;;;;;2.32;88.64;101184.03;2690412;86;21595;-87
2022/12/02 10:41:27;;;;;;;29.77;20.15;;;;;;;2.24;88.62;101175.56;2684118;87;21481;-86
2022/12/02 10:45:28;;;;;;;40.88;21.12;;;;;;;2.26;88.75;101171.12;2681569;86;21116;-87
2022/12/02 10:49:33;;;;;;;32.55;20.43;;;;;;;2.22;88.23;101164.25;2673105;87;21032;-87
2022/12/02 10:53:34;;;;;;;37.60;21.85;;;;;;;2.17;88.66;101165.71;2684910;88;21387;-86
2022/12/02 10:57:37;;;;;;;35.45;21.80;;;;;;;2.22;89.55;101165.56;2690674;87;21060;-87
2022/12/02 11:01:39;;;;;;;34.35;21.90;;;;;;;2.21;88.83;101164.69;2690648;88;21030;-87
2022/12/02 11:05:41;;;;;;;29.72;19.92;;;;;;;2.17;87.75;101167.02;2684693;86;21087;-87
2022/12/02 11:09:50;;;;;;;34.88;21.25;;;;;;;2.14;87.83;101164.50;2690609;87;21040;-87
2022/12/02 11:13:55;;;;;;;31.70;21.15;;;;;;;2.13;88.67;101162.78;2690004;87;21043;-87
2022/12/02 11:17:56;;;;;;;33.55;19.62;;;;;;;2.15;88.00;101164.91;2686056;88;21056;-87
2022/12/02 11:21:57;;;;;;;29.35;18.55;;;;;;;2.06;87.72;101167.38;2690443;88;21024;-87
2022/12/02 11:26:09;;;;;;;30.08;21.12;;;;;;;2.12;87.46;101172.89;2688133;86;21083;-86
2022/12/02 11:30:19;;;;;;;33.80;21.37;;;;;;;2.12;86.78;101165.85;2688173;88;21048;-90
2022/12/02 11:34:27;;;;;;;27.65;18.37;;;;;;;2.21;86.98;101160.75;2690549;87;21036;-89
2022/12/02 11:38:28;;;;;;;35.43;21.52;;;;;;;2.27;87.32;101159.70;2668086;87;21072;-85
2022/12/02 11:42:38;;;;;;;34.38;21.93;;;;;;;2.31;86.41;101158.69;2690329;86;21985;-86
2022/12/02 11:46:45;;;;;;;35.90;21.23;;;;;;;2.32;85.96;101160.88;2690166;88;21087;-86
2022/12/02 11:50:46;;;;;;;37.33;25.55;;;;;;;2.30;86.34;101160.91;2657106;87;21036;-90
2022/12/02 11:55:01;;;;;;;30.50;20.43;;;;;;;2.27;86.36;101161.02;2652193;88;21081;-88
2022/12/02 11:59:06;;;;;;;28.92;20.25;;;;;;;2.24;86.65;101162.44;2648686;88;21079;-89
2022/12/02 12:03:17;;;;;;;27.85;16.93;;;;;;;2.18;85.72;101163.96;2651212;88;21083;-90
2022/12/02 12:07:18;;;;;;;25.20;15.50;;;;;;;2.19;86.54;101157.80;2633936;89;21107;-90
2022/12/02 12:11:34;;;;;;;29.00;18.23;;;;;;;2.05;84.55;101149.91;2652480;88;21000;-90
2022/12/02 12:15:51;;;;;;;27.60;18.20;;;;;;;2.10;85.84;101154.55;2651907;89;21108;-89
2022/12/02 12:19:52;;;;;;;27.90;18.62;;;;;;;2.18;85.44;101155.61;2652096;87;21075;-89
2022/12/02 12:23:53;;;;;;;29.77;19.62;;;;;;;2.08;85.05;101149.80;2653100;88;21112;-91
2022/12/02 12:27:54;;;;;;;30.23;17.10;;;;;;;2.12;84.79;101147.95;2652947;89;21028;-91
2022/12/02 12:31:55;;;;;;;25.60;16.70;;;;;;;2.12;85.19;101146.64;2652866;89;21036;-90
2022/12/02 12:35:58;;;;;;;33.80;18.32;;;;;;;2.13;84.95;101145.25;2651633;89;21131;-91
2022/12/02 12:39:59;;;;;;;33.28;16.20;;;;;;;2.10;85.29;101144.05;2708034;86;21624;-90
2022/12/02 12:44:01;;;;;;;24.92;16.45;;;;;;;2.05;84.91;101138.09;2730231;85;21110;-89
2022/12/02 12:48:02;;;;;;;34.10;21.60;;;;;;;1.95;85.13;101141.47;2728249;85;21750;-89
2022/12/02 12:52:04;;;;;;;28.12;18.65;;;;;;;2.01;85.74;101139.11;2727959;86;21491;-88
2022/12/02 12:56:10;;;;;;;55.88;30.60;;;;;;;1.95;85.28;101134.04;2748786;85;21025;-90
2022/12/02 13:00:22;;;;;;;46.98;28.40;;;;;;;1.98;85.71;101133.97;2725429;85;21527;-91
2022/12/02 13:04:23;;;;;;;42.30;23.67;;;;;;;2.01;85.27;101129.92;2731936;85;21722;-89
2022/12/02 13:08:24;;;;;;;37.10;23.12;;;;;;;1.91;85.94;101136.36;2727325;85;21102;-89
2022/12/02 13:12:25;;;;;;;29.72;19.98;;;;;;;1.93;85.98;101131.92;2725397;85;21660;-89
2022/12/02 13:16:26;;;;;;;59.70;33.05;;;;;;;1.97;86.30;101135.72;2732254;86;21075;-89
2022/12/02 13:20:35;;;;;;;29.30;17.52;;;;;;;1.96;85.15;101137.06;2731483;86;21075;-90
2022/12/02 13:24:38;;;;;;;44.75;25.43;;;;;;;1.98;85.19;101130.88;2709354;87;21067;-91
2022/12/02 13:28:39;;;;;;;26.73;15.75;;;;;;;1.98;84.98;101135.28;2731931;85;21050;-92
2022/12/02 13:32:42;;;;;;;31.55;20.80;;;;;;;1.96;85.67;101139.25;2703817;87;21106;-91
2022/12/02 13:36:43;;;;;;;40.55;26.20;;;;;;;1.91;86.15;101137.67;2732216;86;20992;-91
2022/12/02 13:40:44;;;;;;;30.02;19.50;;;;;;;1.90;87.64;101138.59;2702476;87;21063;-91
2022/12/02 13:44:45;;;;;;;22.70;15.83;;;;;;;1.85;87.28;101140.91;2732179;85;21052;-92
2022/12/02 13:48:46;;;;;;;28.50;17.23;;;;;;;1.85;86.40;101135.66;2755602;83;21643;-90
2022/12/02 13:52:48;;;;;;;30.43;19.95;;;;;;;1.91;87.09;101132.43;2703777;87;21088;-89
2022/12/02 13:56:49;;;;;;;24.50;17.27;;;;;;;1.87;86.76;101140.88;2754957;84;21075;-89
2022/12/02 14:00:50;;;;;;;31.12;21.33;;;;;;;1.88;87.31;101132.53;2717277;86;21036;-91
2022/12/02 14:04:51;;;;;;;30.10;20.00;;;;;;;1.91;86.98;101142.92;2717586;86;21631;-89
2022/12/02 14:08:52;;;;;;;29.70;17.73;;;;;;;1.90;86.72;101145.14;2718668;86;20988;-89
2022/12/02 14:12:55;;;;;;;30.92;19.45;;;;;;;1.93;86.19;101148.54;2716562;86;21020;-90
2022/12/02 14:16:56;;;;;;;33.80;17.15;;;;;;;1.94;86.14;101151.56;2715843;86;21580;-92
2022/12/02 14:20:57;;;;;;;34.48;20.40;;;;;;;1.89;85.71;101147.37;2713123;86;21607;-92
2022/12/02 14:24:58;;;;;;;31.33;19.10;;;;;;;1.91;86.28;101152.11;2669207;87;21031;-90
2022/12/02 14:28:59;;;;;;;32.35;19.37;;;;;;;1.89;86.53;101152.61;2744269;84;21060;-91
2022/12/02 14:33:00;;;;;;;37.13;20.15;;;;;;;1.84;86.72;101148.38;2708156;87;21039;-91
2022/12/02 14:37:01;;;;;;;33.18;20.20;;;;;;;1.85;87.52;101155.78;2696382;87;21079;-90
2022/12/02 14:41:03;;;;;;;30.45;19.60;;;;;;;1.84;86.73;101159.31;2699240;86;21068;-92
2022/12/02 14:45:06;;;;;;;38.35;22.35;;;;;;;1.83;86.63;101158.91;2721169;86;21067;-94
2022/12/02 14:49:07;;;;;;;31.65;17.55;;;;;;;1.78;87.11;101153.83;2728759;84;21083;-93
2022/12/02 14:53:08;;;;;;;25.35;18.27;;;;;;;1.66;85.69;101156.81;2740857;84;21051;-94
2022/12/02 14:57:13;;;;;;;33.98;19.48;;;;;;;1.74;86.83;101152.65;2732122;85;21136;-94
2022/12/02 15:01:15;;;;;;;46.33;24.57;;;;;;;1.68;87.37;101156.31;2733879;85;21004;-93
2022/12/02 15:05:19;;;;;;;32.23;19.90;;;;;;;1.67;87.50;101162.47;2725891;85;21071;-93
2022/12/02 15:09:21;;;;;;;38.75;21.48;;;;;;;1.56;87.84;101158.39;2727143;86;21074;-91
2022/12/02 15:13:22;;;;;;;53.13;23.50;;;;;;;1.60;87.75;101164.88;2728183;86;21035;-90
2022/12/02 15:17:23;;;;;;;40.05;27.80;;;;;;;1.58;88.89;101171.94;2728514;86;21052;-90
2022/12/02 15:21:24;;;;;;;34.50;26.65;;;;;;;1.60;88.83;101170.13;2727940;86;21031;-89
2022/12/02 15:25:26;;;;;;;52.03;24.43;;;;;;;1.59;89.75;101171.88;2728632;86;21515;-89
2022/12/02 15:29:28;;;;;;;38.83;20.45;;;;;;;1.57;89.55;101172.37;2727399;85;21078;-92
2022/12/02 15:33:29;;;;;;;36.50;22.75;;;;;;;1.62;89.29;101170.94;2732625;85;21047;-90
2022/12/02 15:37:31;;;;;;;48.15;26.15;;;;;;;1.54;89.09;101167.23;2737368;85;21040;-91
2022/12/02 15:41:32;;;;;;;50.25;26.87;;;;;;;1.46;89.30;101172.70;2717542;85;21088;-90
2022/12/02 15:45:33;;;;;;;38.88;23.77;;;;;;;1.44;89.90;101166.64;2731542;85;21036;-91
2022/12/02 15:49:34;;;;;;;43.90;26.37;;;;;;;1.52;90.43;101169.89;2724486;86;21524;-91
2022/12/02 15:53:35;;;;;;;42.55;25.27;;;;;;;1.54;90.42;101170.70;2727863;85;20985;-89
2022/12/02 15:57:36;;;;;;;29.55;20.00;;;;;;;1.59;90.05;101172.34;2731301;85;21064;-90
2022/12/02 16:01:37;;;;;;;29.90;20.20;;;;;;;1.50;87.23;101180.03;2673015;87;21043;-89
2022/12/02 16:05:38;;;;;;;35.33;21.50;;;;;;;1.50;86.51;101180.88;2754958;85;21031;-91
2022/12/02 16:09:39;;;;;;;34.23;19.45;;;;;;;1.55;86.75;101178.12;2784973;83;21052;-92
2022/12/02 16:13:42;;;;;;;28.65;21.17;;;;;;;1.55;86.45;101177.66;2702577;87;23943;-89
2022/12/02 16:17:45;;;;;;;40.00;25.97;;;;;;;1.60;87.83;101180.62;2682994;86;21088;-91
2022/12/02 16:21:48;;;;;;;39.00;23.85;;;;;;;1.61;88.09;101184.95;2728050;86;21099;-90
2022/12/02 16:25:55;;;;;;;42.55;25.85;;;;;;;1.61;87.85;101183.18;2696742;86;20995;-91
2022/12/02 16:29:59;;;;;;;;;;;;;;;1.60;88.04;101176.22;2698220;86;21080;-91
2022/12/02 16:34:01;;;;;;;43.35;28.23;;;;;;;1.60;88.08;101185.86;2665705;87;20145;-92
2022/12/02 16:38:02;;;;;;;45.90;26.60;;;;;;;1.66;89.38;101187.82;2755767;85;21016;-90
2022/12/02 16:42:03;;;;;;;39.27;25.00;;;;;;;1.68;89.17;101182.55;2715413;86;21084;-89
2022/12/02 16:46:05;;;;;;;42.62;27.75;;;;;;;1.63;89.57;101173.97;2722114;86;21016;-91
2022/12/02 16:50:08;;;;;;;36.45;23.27;;;;;;;1.53;89.55;101178.63;2680132;86;21016;-90
2022/12/02 16:54:13;;;;;;;37.17;22.82;;;;;;;1.56;89.10;101173.28;2729119;85;21039;-90
2022/12/02 16:58:14;;;;;;;36.20;24.85;;;;;;;1.52;89.44;101177.75;2653512;88;21512;-92
2022/12/02 17:02:15;;;;;;;37.05;21.12;;;;;;;1.51;89.86;101182.59;2667866;87;21217;-91
2022/12/02 17:06:17;;;;;;;37.48;21.90;;;;;;;1.37;88.29;101187.38;2667141;87;21054;-90
2022/12/02 17:10:19;;;;;;;40.58;24.18;;;;;;;1.31;88.48;101183.19;2669874;87;21126;-93
2022/12/02 17:14:22;;;;;;;33.85;19.70;;;;;;;1.31;89.04;101181.88;2662815;89;21862;-91
2022/12/02 17:18:24;;;;;;;38.60;18.85;;;;;;;1.30;88.52;101181.47;2666787;87;21070;-91
2022/12/02 17:22:27;;;;;;;32.48;16.95;;;;;;;1.32;88.13;101186.22;2754539;81;21129;-92
2022/12/02 17:26:29;;;;;;;30.08;18.92;;;;;;;1.30;87.71;101188.47;2747122;84;21062;-90
2022/12/02 17:30:30;;;;;;;31.37;21.17;;;;;;;1.26;87.62;101190.30;2744053;85;21046;-90
2022/12/02 17:34:31;;;;;;;37.25;20.05;;;;;;;1.23;87.11;101195.20;2747282;84;21049;-91
2022/12/02 17:38:32;;;;;;;28.92;17.95;;;;;;;1.24;87.66;101194.30;2750404;84;21061;-91
2022/12/02 17:42:33;;;;;;;28.62;18.02;;;;;;;1.28;87.97;101193.30;2641232;87;21100;-91
2022/12/02 17:46:34;;;;;;;30.65;20.72;;;;;;;1.28;88.00;101214.74;2687790;87;21053;-91
2022/12/02 17:50:35;;;;;;;38.73;21.05;;;;;;;1.26;88.42;101209.53;2691579;86;21021;-91
2022/12/02 17:54:36;;;;;;;39.55;24.87;;;;;;;1.32;88.44;101212.87;2700616;86;21648;-89
2022/12/02 17:58:37;;;;;;;51.68;26.52;;;;;;;1.24;88.73;101210.46;2661264;88;21578;-91
2022/12/02 18:02:39;;;;;;;33.85;23.70;;;;;;;1.28;89.37;101210.34;2654021;87;21075;-89
2022/12/02 18:06:40;;;;;;;44.40;26.65;;;;;;;1.28;89.09;101211.65;2671729;86;21089;-90
2022/12/02 18:10:41;;;;;;;46.28;27.25;;;;;;;1.31;88.90;101213.34;2673416;86;21688;-90
2022/12/02 18:14:42;;;;;;;41.95;26.27;;;;;;;;;;2687719;86;21529;-89
2022/12/02 18:18:43;;;;;;;37.88;23.90;;;;;;;1.32;89.72;101206.31;2671135;86;21815;-90
2022/12/02 18:22:44;;;;;;;47.23;25.75;;;;;;;1.32;90.44;101206.31;2701379;86;21010;-88
2022/12/02 18:26:45;;;;;;;39.25;28.38;;;;;;;1.30;90.00;101206.37;2628199;88;21126;-89
2022/12/02 18:30:46;;;;;;;55.90;30.80;;;;;;;1.29;89.54;101207.28;2731133;85;21077;-91
2022/12/02 18:34:47;;;;;;;44.40;30.75;;;;;;;1.27;90.06;101213.87;2739481;84;21012;-90
2022/12/02 18:38:48;;;;;;;41.30;26.90;;;;;;;1.25;89.94;101213.05;2733411;85;21073;-90